createdAt,value
2022-11-07T00:03:49.015Z,0.84
2022-11-07T00:18:48.668Z,0.91
2022-11-07T00:33:49.180Z,1.2
2022-11-07T01:03:49.211Z,0.64
2022-11-07T01:33:49.305Z,0.69
2022-11-07T01:48:49.035Z,0.36
2022-11-07T02:03:48.678Z,0.88
2022-11-07T02:18:49.326Z,0.4
2022-11-07T03:03:49.272Z,0.07
2022-11-07T03:18:49.070Z,0.59
2022-11-07T03:33:48.884Z,0.49
2022-11-07T03:48:48.881Z,0.94
2022-11-07T04:03:51.671Z,6.56
2022-11-07T04:18:49.187Z,3.63
2022-11-07T04:33:49.277Z,0.49
2022-11-07T04:48:48.978Z,5.61
2022-11-07T05:03:48.837Z,4.34
2022-11-07T05:18:48.749Z,1.44
2022-11-07T05:33:48.944Z,2.01
2022-11-07T05:48:48.870Z,1.21
2022-11-07T06:03:49.356Z,2.93
2022-11-07T06:18:49.551Z,9.03
2022-11-07T06:33:48.863Z,20.49
2022-11-07T06:48:49.058Z,22.57
2022-11-07T07:03:50.243Z,28.36
2022-11-07T07:33:48.436Z,53.57
2022-11-07T08:33:49.106Z,4.59
2022-11-07T09:48:49.854Z,1.93
2022-11-07T10:04:17.953Z,2.82
2022-11-07T10:18:49.121Z,0.86
2022-11-07T10:48:49.191Z,2.16
2022-11-07T11:03:48.925Z,0.46
2022-11-07T11:48:49.656Z,3.14
2022-11-07T12:03:49.162Z,0.52
2022-11-07T12:18:49.368Z,0.74
2022-11-07T12:33:49.101Z,0.52
2022-11-07T13:18:49.223Z,0.53
2022-11-07T13:48:49.172Z,0.75
2022-11-07T14:03:48.735Z,0.2
2022-11-07T14:18:49.610Z,1.53
2022-11-07T14:33:49.271Z,1.38
2022-11-07T14:48:49.381Z,3.75
2022-11-07T15:03:49.760Z,3.7
2022-11-07T15:33:48.941Z,4.79
2022-11-07T15:48:49.269Z,2.35
2022-11-07T16:03:49.115Z,1.83
2022-11-07T16:18:49.625Z,20.36
2022-11-07T16:33:49.168Z,8.26
2022-11-07T17:03:49.294Z,36.96
2022-11-07T17:18:49.246Z,24.9
2022-11-07T18:03:48.549Z,49.77
2022-11-07T18:18:49.269Z,27.83
2022-11-07T19:03:49.389Z,9.69
2022-11-07T19:33:48.798Z,13.99
2022-11-07T19:48:52.832Z,10.02
2022-11-07T20:03:48.577Z,5.45
2022-11-07T20:18:49.158Z,12.44
2022-11-07T20:33:49.004Z,13.85
2022-11-07T20:48:48.584Z,12.49
2022-11-07T21:03:48.959Z,7.04
2022-11-07T21:18:53.701Z,7.51
2022-11-07T21:33:49.402Z,9.04
2022-11-07T21:48:49.295Z,7.53
2022-11-07T22:04:05.748Z,6.28
2022-11-07T22:18:49.228Z,9.12
2022-11-07T22:33:48.493Z,6.04
2022-11-07T22:48:49.055Z,5.73
2022-11-07T23:03:48.811Z,4.01
2022-11-07T23:18:48.708Z,3.29
2022-11-07T23:48:49.005Z,3.86
